| time (UTC) | temp C | wind direction | speed KPH | gust KPH | rain 1hr cm | rain 24hr cm | rain mn cm | humidity % | barometer mb |
| 20260509212915 | 21 | 202 | 3.2 | 9.7 | 0.00 | 0.46 | 0.38 | 54 | 1008.4 |
| 20260509211913 | 21 | 45 | 3.2 | 6.4 | 0.00 | 0.46 | 0.38 | 56 | 1008.6 |
| 20260509210913 | 21 | 247 | 3.2 | 4.8 | 0.00 | 0.46 | 0.38 | 54 | 1008.5 |
| 20260509205913 | 20 | 225 | 3.2 | 12.9 | 0.00 | 0.46 | 0.38 | 57 | 1008.6 |
| 20260509204913 | 19 | 112 | 4.8 | 8.0 | 0.00 | 0.46 | 0.38 | 60 | 1008.9 |
| 20260509204026 | 20 | 135 | 1.6 | 6.4 | 0.00 | 0.46 | 0.38 | 61 | 1009.0 |
| 20260509202911 | 20 | 180 | 1.6 | 8.0 | 0.00 | 0.46 | 0.38 | 61 | 1009.0 |
| 20260509201910 | 21 | 225 | 3.2 | 8.0 | 0.00 | 0.46 | 0.38 | 58 | 1009.1 |
| 20260509200910 | 20 | 270 | 3.2 | 8.0 | 0.00 | 0.46 | 0.38 | 59 | 1009.2 |
| 20260509195910 | 20 | 112 | 1.6 | 8.0 | 0.00 | 0.46 | 0.38 | 61 | 1009.3 |
| 20260509195024 | 19 | 180 | 3.2 | 4.8 | 0.00 | 0.48 | 0.38 | 67 | 1009.4 |
| 20260509193908 | 19 | 22 | 3.2 | 8.0 | 0.00 | 0.48 | 0.38 | 66 | 1009.5 |
| 20260509193023 | 19 | 135 | 3.2 | 6.4 | 0.00 | 0.48 | 0.38 | 68 | 1009.5 |
| 20260509191907 | 18 | 337 | 0.0 | 6.4 | 0.00 | 0.48 | 0.38 | 72 | 1009.7 |
| 20260509190907 | 18 | 202 | 3.2 | 6.4 | 0.00 | 0.48 | 0.38 | 71 | 1009.9 |
| 20260509185907 | 17 | 270 | 1.6 | 3.2 | 0.00 | 0.48 | 0.38 | 72 | 1010.0 |
| 20260509185021 | 18 | 270 | 1.6 | 4.8 | 0.00 | 0.48 | 0.38 | 74 | 1010.1 |
| 20260509183906 | 18 | 90 | 3.2 | 6.4 | 0.00 | 0.48 | 0.38 | 74 | 1010.1 |
| 20260509183020 | 18 | 292 | 4.8 | 6.4 | 0.00 | 0.48 | 0.38 | 75 | 1010.2 |
| 20260509181904 | 16 | 202 | 3.2 | 6.4 | 0.00 | 0.48 | 0.38 | 81 | 1010.4 |
| 20260509180904 | 17 | 337 | 0.0 | 4.8 | 0.00 | 0.48 | 0.38 | 81 | 1010.4 |
| 20260509175903 | 16 | 45 | 0.0 | 4.8 | 0.00 | 0.48 | 0.38 | 83 | 1010.5 |
| 20260509174903 | 16 | 202 | 3.2 | 4.8 | 0.00 | 0.48 | 0.38 | 84 | 1010.4 |
| 20260509173902 | 16 | 180 | 1.6 | 6.4 | 0.00 | 0.48 | 0.38 | 84 | 1010.5 |
| 20260509172902 | 16 | 270 | 0.0 | 6.4 | 0.00 | 0.48 | 0.38 | 82 | 1010.4 |
| 20260509171901 | 17 | 225 | 1.6 | 8.0 | 0.00 | 0.48 | 0.38 | 80 | 1010.3 |
| 20260509170900 | 16 | 112 | 1.6 | 4.8 | 0.00 | 0.48 | 0.38 | 87 | 1010.2 |
| 20260509165900 | 17 | 315 | 3.2 | 6.4 | 0.00 | 0.48 | 0.38 | 84 | 1010.2 |
| 20260509165015 | 16 | 225 | 1.6 | 4.8 | 0.00 | 0.48 | 0.38 | 87 | 1010.1 |
| 20260509163900 | 17 | 270 | 1.6 | 6.4 | 0.00 | 0.48 | 0.38 | 84 | 1010.0 |
| 20260509162859 | 16 | 270 | 1.6 | 4.8 | 0.00 | 0.48 | 0.38 | 90 | 1010.0 |
| 20260509162014 | 14 | 202 | 1.6 | 8.0 | 0.00 | 0.48 | 0.38 | 96 | 1010.2 |
| 20260509160858 | 15 | 202 | 3.2 | 4.8 | 0.00 | 0.48 | 0.38 | 98 | 1010.3 |
| 20260509155858 | 15 | 157 | 0.0 | 3.2 | 0.00 | 0.48 | 0.38 | 96 | 1010.1 |
| 20260509155013 | 14 | 225 | 3.2 | 6.4 | 0.03 | 0.48 | 0.38 | 99 | 1010.1 |
| 20260509153856 | 13 | 90 | 0.0 | 3.2 | 0.03 | 0.48 | 0.38 | 99 | 1010.2 |
| 20260509152856 | 12 | 180 | 0.0 | 6.4 | 0.03 | 0.48 | 0.38 | 99 | 1010.2 |
| 20260509151855 | 12 | 157 | 1.6 | 4.8 | 0.03 | 0.48 | 0.38 | 99 | 1010.2 |
| 20260509150855 | 11 | 45 | 0.0 | 1.6 | 0.03 | 0.48 | 0.38 | 99 | 1010.0 |
| 20260509145854 | 11 | 202 | 0.0 | 9.7 | 0.03 | 0.48 | 0.38 | 99 | 1010.3 |
| 20260509144853 | 11 | 180 | 0.0 | 1.6 | 0.00 | 0.46 | 0.36 | 99 | 1010.3 |
| 20260509143853 | 11 | 157 | 0.0 | 3.2 | 0.00 | 0.46 | 0.36 | 99 | 1010.3 |
| 20260509143007 | 11 | 112 | 0.0 | 3.2 | 0.00 | 0.46 | 0.36 | 99 | 1010.2 |
| 20260509141851 | 11 | 112 | 0.0 | 1.6 | 0.00 | 0.46 | 0.36 | 99 | 1010.2 |
| 20260509140852 | 11 | 67 | 0.0 | 1.6 | 0.03 | 0.46 | 0.36 | 99 | 1010.3 |
| 20260509140007 | 10 | 202 | 0.0 | 4.8 | 0.05 | 0.46 | 0.36 | 99 | 1010.4 |
| 20260509134851 | 10 | 225 | 0.0 | 1.6 | 0.08 | 0.46 | 0.36 | 99 | 1010.3 |
| 20260509133851 | 10 | 67 | 0.0 | 1.6 | 0.10 | 0.46 | 0.36 | 99 | 1010.5 |
| 20260509132850 | 10 | 225 | 0.0 | 4.8 | 0.10 | 0.46 | 0.36 | 99 | 1010.5 |
| 20260509132004 | 10 | 202 | 0.0 | 4.8 | 0.13 | 0.46 | 0.36 | 99 | 1010.6 |
| 20260509130848 | 10 | 45 | 0.0 | 3.2 | 0.13 | 0.43 | 0.33 | 99 | 1010.6 |
| 20260509125848 | 10 | 225 | 0.0 | 1.6 | 0.13 | 0.41 | 0.30 | 99 | 1010.6 |
| 20260509124848 | 10 | 112 | 0.0 | 1.6 | 0.13 | 0.38 | 0.28 | 99 | 1010.6 |
| 20260509123847 | 10 | 90 | 0.0 | 1.6 | 0.10 | 0.36 | 0.25 | 99 | 1010.7 |
| 20260509122847 | 10 | 202 | 0.0 | 1.6 | 0.13 | 0.36 | 0.25 | 99 | 1010.7 |
| 20260509121847 | 10 | 202 | 0.0 | 1.6 | 0.13 | 0.33 | 0.23 | 99 | 1010.7 |
| 20260509120846 | 10 | 157 | 0.0 | 1.6 | 0.15 | 0.30 | 0.20 | 99 | 1010.8 |
| 20260509120000 | 10 | 292 | 0.0 | 3.2 | 0.13 | 0.28 | 0.18 | 99 | 1010.8 |
| 20260509114846 | 10 | 157 | 0.0 | 3.2 | 0.10 | 0.25 | 0.15 | 99 | 1010.7 |
| 20260509113846 | 10 | 292 | 0.0 | 1.6 | 0.13 | 0.25 | 0.15 | 99 | 1010.7 |
| 20260509112844 | 9 | 90 | 0.0 | 3.2 | 0.10 | 0.23 | 0.13 | 99 | 1010.6 |
| 20260509112000 | 9 | 202 | 0.0 | 4.8 | 0.08 | 0.20 | 0.10 | 99 | 1010.5 |
| 20260509110844 | 9 | 22 | 0.0 | 4.8 | 0.03 | 0.15 | 0.05 | 99 | 1010.5 |
| 20260509105843 | 9 | 202 | 0.0 | 3.2 | 0.03 | 0.15 | 0.05 | 99 | 1010.4 |
| 20260509104843 | 9 | 22 | 0.0 | 4.8 | 0.03 | 0.15 | 0.05 | 99 | 1010.3 |
| 20260509103843 | 8 | 247 | 0.0 | 1.6 | 0.00 | 0.13 | 0.03 | 99 | 1010.3 |
| 20260509102842 | 8 | 270 | 0.0 | 1.6 | 0.00 | 0.13 | 0.03 | 99 | 1010.2 |
| 20260509101841 | 8 | 112 | 0.0 | 0.0 | 0.03 | 0.13 | 0.03 | 99 | 1010.3 |
| 20260509100955 | 8 | 112 | 0.0 | 0.0 | 0.03 | 0.13 | 0.03 | 99 | 1010.3 |
| 20260509095840 | 8 | 202 | 0.0 | 0.0 | 0.03 | 0.13 | 0.03 | 99 | 1010.4 |
| 20260509094955 | 8 | 67 | 0.0 | 0.0 | 0.03 | 0.13 | 0.03 | 99 | 1010.4 |
| 20260509093955 | 8 | 202 | 0.0 | 0.0 | 0.03 | 0.13 | 0.03 | 99 | 1010.5 |
| 20260509092839 | 8 | 45 | 0.0 | 0.0 | 0.03 | 0.13 | 0.03 | 99 | 1010.6 |
| 20260509091953 | 8 | 270 | 0.0 | 0.0 | 0.00 | 0.10 | 0.00 | 99 | 1010.8 |
| 20260509090953 | 8 | 202 | 0.0 | 0.0 | 0.00 | 0.10 | 0.00 | 99 | 1010.8 |
| 20260509085837 | 8 | 202 | 0.0 | 0.0 | 0.00 | 0.10 | 0.00 | 99 | 1010.8 |
| 20260509084952 | 8 | 270 | 0.0 | 0.0 | 0.00 | 0.10 | 0.00 | 99 | 1010.9 |
| 20260509083836 | 8 | 112 | 0.0 | 0.0 | 0.00 | 0.10 | 0.00 | 99 | 1010.9 |
| 20260509082950 | 8 | 225 | 0.0 | 0.0 | 0.00 | 0.10 | 0.00 | 99 | 1011.0 |
| 20260509081837 | 8 | 247 | 0.0 | 0.0 | 0.00 | 0.10 | 0.00 | 99 | 1010.9 |
| 20260509080834 | 8 | 180 | 0.0 | 0.0 | 0.00 | 0.10 | 0.00 | 99 | 1010.8 |
| 20260509075948 | 8 | 225 | 0.0 | 0.0 | 0.00 | 0.10 | 0.00 | 99 | 1010.9 |
| 20260509074834 | 8 | 157 | 0.0 | 0.0 | 0.00 | 0.10 | 0.00 | 99 | 1010.8 |
| 20260509073948 | 8 | 202 | 0.0 | 0.0 | 0.00 | 0.10 | 0.00 | 99 | 1010.9 |
| 20260509072947 | 8 | 225 | 0.0 | 0.0 | 0.00 | 0.10 | 0.00 | 99 | 1010.9 |
| 20260509071946 | 8 | 225 | 0.0 | 0.0 | 0.00 | 0.10 | 0.00 | 99 | 1010.7 |
| 20260509070946 | 8 | 270 | 0.0 | 0.0 | 0.00 | 0.10 | 0.00 | 99 | 1010.8 |
| 20260509065831 | 8 | 225 | 0.0 | 0.0 | 0.00 | 0.10 | 0.00 | 99 | 1010.7 |
| 20260509064830 | 8 | 225 | 0.0 | 0.0 | 0.00 | 0.10 | 0.00 | 99 | 1010.9 |
| 20260509063828 | 8 | 180 | 0.0 | 0.0 | 0.00 | 0.10 | 0.00 | 99 | 1010.9 |
| 20260509062944 | 8 | 135 | 0.0 | 0.0 | 0.00 | 0.10 | 0.00 | 99 | 1011.0 |
| 20260509061943 | 8 | 112 | 0.0 | 0.0 | 0.00 | 0.10 | 0.00 | 99 | 1011.2 |
| 20260509060828 | 8 | 112 | 0.0 | 0.0 | 0.00 | 0.10 | 0.00 | 99 | 1011.3 |
| 20260509055827 | 8 | 112 | 0.0 | 0.0 | 0.00 | 0.10 | 0.00 | 99 | 1011.5 |
| 20260509054827 | 8 | 112 | 0.0 | 0.0 | 0.00 | 0.10 | 0.00 | 99 | 1011.4 |
| 20260509053826 | 8 | 112 | 0.0 | 0.0 | 0.00 | 0.10 | 0.00 | 99 | 1011.6 |
| 20260509052825 | 8 | 157 | 0.0 | 0.0 | 0.00 | 0.10 | 0.00 | 99 | 1011.8 |
| 20260509051825 | 8 | 135 | 0.0 | 0.0 | 0.00 | 0.10 | 0.00 | 99 | 1011.9 |
| 20260509050824 | 8 | 135 | 0.0 | 0.0 | 0.00 | 0.10 | 0.00 | 99 | 1011.9 |
| 20260509045824 | 8 | 90 | 0.0 | 3.2 | 0.00 | 0.10 | 0.00 | 99 | 1011.9 |
| 20260509044823 | 8 | 112 | 1.6 | 3.2 | 0.00 | 0.10 | 0.00 | 99 | 1011.9 |
| 20260509043822 | 8 | 90 | 0.0 | 3.2 | 0.00 | 0.10 | 0.00 | 99 | 1012.0 |
| 20260509042821 | 8 | 90 | 1.6 | 3.2 | 0.00 | 0.10 | 0.00 | 99 | 1012.2 |
| 20260509041936 | 8 | 90 | 1.6 | 3.2 | 0.00 | 0.10 | 0.00 | 99 | 1012.4 |
| 20260509040820 | 8 | 90 | 1.6 | 3.2 | 0.00 | 0.10 | 0.00 | 99 | 1012.5 |
| 20260509035820 | 8 | 112 | 0.0 | 3.2 | 0.00 | 0.10 | 0.10 | 99 | 1012.6 |
| 20260509034819 | 8 | 112 | 1.6 | 3.2 | 0.03 | 0.10 | 0.10 | 99 | 1012.8 |
| 20260509033933 | 8 | 112 | 0.0 | 1.6 | 0.03 | 0.10 | 0.10 | 99 | 1013.0 |
| 20260509032818 | 9 | 112 | 0.0 | 0.0 | 0.05 | 0.10 | 0.10 | 99 | 1013.1 |
| 20260509031932 | 9 | 112 | 0.0 | 1.6 | 0.05 | 0.10 | 0.10 | 99 | 1013.3 |
| 20260509030932 | 9 | 112 | 0.0 | 0.0 | 0.08 | 0.10 | 0.10 | 99 | 1013.3 |
| 20260509025817 | 9 | 180 | 0.0 | 0.0 | 0.08 | 0.10 | 0.10 | 99 | 1013.5 |
| 20260509024930 | 9 | 112 | 0.0 | 0.0 | 0.05 | 0.08 | 0.08 | 99 | 1013.7 |
| 20260509023815 | 9 | 202 | 0.0 | 0.0 | 0.05 | 0.08 | 0.08 | 99 | 1013.7 |
| 20260509022814 | 9 | 135 | 0.0 | 0.0 | 0.03 | 0.05 | 0.05 | 99 | 1013.8 |
| 20260509021815 | 9 | 247 | 0.0 | 3.2 | 0.03 | 0.05 | 0.05 | 99 | 1013.7 |
| 20260509020814 | 10 | 292 | 0.0 | 1.6 | 0.00 | 0.03 | 0.03 | 99 | 1013.7 |
| 20260509015813 | 10 | 247 | 0.0 | 0.0 | 0.00 | 0.03 | 0.03 | 97 | 1013.5 |
| 20260509014812 | 10 | 180 | 0.0 | 1.6 | 0.00 | 0.03 | 0.03 | 94 | 1013.2 |
| 20260509013929 | 10 | 135 | 1.6 | 3.2 | 0.00 | 0.03 | 0.03 | 94 | 1012.9 |
| 20260509012812 | 10 | 90 | 3.2 | 4.8 | 0.00 | 0.03 | 0.03 | 93 | 1012.5 |
| 20260509011810 | 10 | 90 | 0.0 | 3.2 | 0.00 | 0.03 | 0.03 | 92 | 1012.7 |
| 20260509010810 | 10 | 135 | 1.6 | 3.2 | 0.00 | 0.03 | 0.03 | 90 | 1012.4 |
| 20260509005809 | 10 | 112 | 0.0 | 3.2 | 0.00 | 0.03 | 0.03 | 88 | 1012.4 |
| 20260509004808 | 10 | 135 | 3.2 | 4.8 | 0.00 | 0.03 | 0.03 | 88 | 1012.1 |
| 20260509003922 | 10 | 45 | 0.0 | 3.2 | 0.00 | 0.03 | 0.03 | 89 | 1012.1 |
| 20260509002807 | 10 | 90 | 1.6 | 3.2 | 0.00 | 0.03 | 0.03 | 89 | 1012.2 |
| 20260509001806 | 11 | 67 | 1.6 | 3.2 | 0.00 | 0.03 | 0.03 | 88 | 1012.2 |
| 20260509000807 | 11 | 0 | 0.0 | 3.2 | 0.00 | 0.03 | 0.03 | 88 | 1012.1 |
| 20260508235807 | 11 | 157 | 0.0 | 3.2 | 0.00 | 0.03 | 0.03 | 87 | 1011.7 |
| 20260508234805 | 11 | 112 | 0.0 | 0.0 | 0.00 | 0.03 | 0.03 | 87 | 1011.9 |
| 20260508233805 | 11 | 45 | 0.0 | 3.2 | 0.00 | 0.03 | 0.03 | 87 | 1012.0 |
| 20260508232804 | 11 | 112 | 3.2 | 3.2 | 0.00 | 0.03 | 0.03 | 88 | 1012.1 |
| 20260508231919 | 11 | 90 | 0.0 | 1.6 | 0.00 | 0.03 | 0.03 | 86 | 1012.2 |
| 20260508230803 | 11 | 45 | 0.0 | 0.0 | 0.00 | 0.03 | 0.03 | 85 | 1012.3 |
| 20260508225917 | 11 | 90 | 0.0 | 0.0 | 0.00 | 0.03 | 0.03 | 84 | 1012.2 |
| 20260508224802 | 11 | 112 | 0.0 | 0.0 | 0.00 | 0.03 | 0.03 | 85 | 1012.2 |
| 20260508223916 | 11 | 157 | 0.0 | 0.0 | 0.00 | 0.03 | 0.03 | 86 | 1012.3 |
| 20260508222800 | 12 | 157 | 0.0 | 0.0 | 0.00 | 0.03 | 0.03 | 83 | 1012.5 |
| 20260508221800 | 12 | 157 | 0.0 | 1.6 | 0.00 | 0.03 | 0.03 | 83 | 1012.2 |
| 20260508220759 | 12 | 22 | 0.0 | 0.0 | 0.00 | 0.03 | 0.03 | 81 | 1012.3 |
| 20260508215759 | 12 | 180 | 0.0 | 0.0 | 0.00 | 0.03 | 0.03 | 80 | 1012.4 |
| 20260508214759 | 12 | 247 | 0.0 | 0.0 | 0.00 | 0.03 | 0.03 | 82 | 1012.4 |
| 20260508213758 | 12 | 22 | 0.0 | 0.0 | 0.00 | 0.03 | 0.03 | 81 | 1012.5 |